sensor_id;sensor_type;location;lat;lon;timestamp;temperature;humidity
18648;DHT22;9453;50.294;18.644;2023-01-15T05:03:10;8.30;93.50
18648;DHT22;9453;50.294;18.644;2023-01-15T05:05:37;8.30;93.40
18648;DHT22;9453;50.294;18.644;2023-01-15T05:08:04;8.30;93.30
18648;DHT22;9453;50.294;18.644;2023-01-15T05:10:31;8.20;93.20
18648;DHT22;9453;50.294;18.644;2023-01-15T05:12:58;8.20;93.20
18648;DHT22;9453;50.294;18.644;2023-01-15T05:15:25;8.20;93.60
18648;DHT22;9453;50.294;18.644;2023-01-15T05:17:52;8.10;93.70
18648;DHT22;9453;50.294;18.644;2023-01-15T05:20:20;8.10;93.70
18648;DHT22;9453;50.294;18.644;2023-01-15T05:22:47;8.00;93.60
18648;DHT22;9453;50.294;18.644;2023-01-15T05:25:14;8.00;93.80
18648;DHT22;9453;50.294;18.644;2023-01-15T05:27:41;8.00;93.80
18648;DHT22;9453;50.294;18.644;2023-01-15T05:30:10;7.90;93.60
18648;DHT22;9453;50.294;18.644;2023-01-15T05:32:37;7.90;93.40
18648;DHT22;9453;50.294;18.644;2023-01-15T05:35:04;8.00;93.20
18648;DHT22;9453;50.294;18.644;2023-01-15T05:37:32;8.00;93.10
18648;DHT22;9453;50.294;18.644;2023-01-15T05:39:59;8.00;93.10
18648;DHT22;9453;50.294;18.644;2023-01-15T05:42:27;8.00;92.90
18648;DHT22;9453;50.294;18.644;2023-01-15T05:44:53;8.00;92.70
18648;DHT22;9453;50.294;18.644;2023-01-15T05:47:20;7.90;92.50
18648;DHT22;9453;50.294;18.644;2023-01-15T05:49:47;7.90;92.40
18648;DHT22;9453;50.294;18.644;2023-01-15T05:52:15;7.90;92.40
18648;DHT22;9453;50.294;18.644;2023-01-15T05:54:43;7.80;92.30
18648;DHT22;9453;50.294;18.644;2023-01-15T05:57:11;7.80;92.40
18648;DHT22;9453;50.294;18.644;2023-01-15T05:59:38;7.80;92.30
18648;DHT22;9453;50.294;18.644;2023-01-15T06:02:06;7.80;92.40
18648;DHT22;9453;50.294;18.644;2023-01-15T06:04:32;7.80;92.30
18648;DHT22;9453;50.294;18.644;2023-01-15T06:06:59;7.80;92.10
18648;DHT22;9453;50.294;18.644;2023-01-15T06:09:26;7.80;92.00
18648;DHT22;9453;50.294;18.644;2023-01-15T06:11:55;7.80;92.00
18648;DHT22;9453;50.294;18.644;2023-01-15T06:14:22;7.80;92.00
18648;DHT22;9453;50.294;18.644;2023-01-15T06:16:49;7.80;92.00
18648;DHT22;9453;50.294;18.644;2023-01-15T06:19:16;7.70;92.00
18648;DHT22;9453;50.294;18.644;2023-01-15T06:21:43;7.70;92.00
18648;DHT22;9453;50.294;18.644;2023-01-15T06:24:10;7.70;92.00
18648;DHT22;9453;50.294;18.644;2023-01-15T06:26:37;7.70;92.00
18648;DHT22;9453;50.294;18.644;2023-01-15T06:29:06;7.70;92.00
18648;DHT22;9453;50.294;18.644;2023-01-15T06:31:33;7.70;91.80
18648;DHT22;9453;50.294;18.644;2023-01-15T06:34:00;7.70;91.70
18648;DHT22;9453;50.294;18.644;2023-01-15T06:36:27;7.70;91.70
18648;DHT22;9453;50.294;18.644;2023-01-15T06:38:54;7.70;91.50
18648;DHT22;9453;50.294;18.644;2023-01-15T06:41:23;7.70;91.30
18648;DHT22;9453;50.294;18.644;2023-01-15T06:44:11;7.80;91.50
18648;DHT22;9453;50.294;18.644;2023-01-15T06:47:01;7.70;91.30
18648;DHT22;9453;50.294;18.644;2023-01-15T06:49:47;7.80;91.40
18648;DHT22;9453;50.294;18.644;2023-01-15T06:52:14;7.80;91.10
18648;DHT22;9453;50.294;18.644;2023-01-15T06:54:41;7.80;91.20
18648;DHT22;9453;50.294;18.644;2023-01-15T06:57:08;7.80;91.20
18648;DHT22;9453;50.294;18.644;2023-01-15T06:59:36;7.80;91.00
18648;DHT22;9453;50.294;18.644;2023-01-15T07:02:03;7.80;91.10
18648;DHT22;9453;50.294;18.644;2023-01-15T07:04:30;7.80;91.00
18648;DHT22;9453;50.294;18.644;2023-01-15T07:06:57;7.80;90.90
18648;DHT22;9453;50.294;18.644;2023-01-15T07:09:24;7.80;91.00
18648;DHT22;9453;50.294;18.644;2023-01-15T07:11:51;7.80;90.80
18648;DHT22;9453;50.294;18.644;2023-01-15T07:14:19;7.80;90.60
18648;DHT22;9453;50.294;18.644;2023-01-15T07:16:48;7.80;90.50
18648;DHT22;9453;50.294;18.644;2023-01-15T07:19:16;7.80;90.50
18648;DHT22;9453;50.294;18.644;2023-01-15T07:21:43;7.80;90.60
18648;DHT22;9453;50.294;18.644;2023-01-15T07:24:10;7.80;90.50
18648;DHT22;9453;50.294;18.644;2023-01-15T07:26:38;7.80;90.50
18648;DHT22;9453;50.294;18.644;2023-01-15T07:29:05;7.80;90.40
18648;DHT22;9453;50.294;18.644;2023-01-15T07:31:31;7.80;90.40
18648;DHT22;9453;50.294;18.644;2023-01-15T07:34:00;7.80;90.40
18648;DHT22;9453;50.294;18.644;2023-01-15T07:36:27;7.80;90.50
18648;DHT22;9453;50.294;18.644;2023-01-15T07:38:56;7.80;90.50
18648;DHT22;9453;50.294;18.644;2023-01-15T07:41:23;7.80;90.50
18648;DHT22;9453;50.294;18.644;2023-01-15T07:44:08;7.80;90.30
18648;DHT22;9453;50.294;18.644;2023-01-15T07:46:53;7.80;90.40
18648;DHT22;9453;50.294;18.644;2023-01-15T07:49:38;7.80;90.30
18648;DHT22;9453;50.294;18.644;2023-01-15T07:52:12;7.80;90.10
18648;DHT22;9453;50.294;18.644;2023-01-15T07:54:39;7.80;90.10
18648;DHT22;9453;50.294;18.644;2023-01-15T07:57:06;7.80;90.00
18648;DHT22;9453;50.294;18.644;2023-01-15T07:59:34;7.80;89.50
18648;DHT22;9453;50.294;18.644;2023-01-15T08:02:01;7.80;89.80
18648;DHT22;9453;50.294;18.644;2023-01-15T08:04:28;7.80;89.60
18648;DHT22;9453;50.294;18.644;2023-01-15T08:06:58;7.80;89.30
18648;DHT22;9453;50.294;18.644;2023-01-15T08:09:25;7.90;89.20
18648;DHT22;9453;50.294;18.644;2023-01-15T08:11:52;7.90;89.20
18648;DHT22;9453;50.294;18.644;2023-01-15T08:14:36;7.90;88.90
18648;DHT22;9453;50.294;18.644;2023-01-15T08:17:20;7.90;88.60
18648;DHT22;9453;50.294;18.644;2023-01-15T08:19:47;7.90;88.40
18648;DHT22;9453;50.294;18.644;2023-01-15T08:22:16;8.00;88.30
18648;DHT22;9453;50.294;18.644;2023-01-15T08:24:43;7.90;87.40
18648;DHT22;9453;50.294;18.644;2023-01-15T08:27:09;8.00;87.50
18648;DHT22;9453;50.294;18.644;2023-01-15T08:29:38;7.90;87.50
18648;DHT22;9453;50.294;18.644;2023-01-15T08:32:05;8.00;87.90
18648;DHT22;9453;50.294;18.644;2023-01-15T08:34:32;8.00;87.60
18648;DHT22;9453;50.294;18.644;2023-01-15T08:36:59;8.00;87.10
18648;DHT22;9453;50.294;18.644;2023-01-15T08:39:27;8.00;87.20
18648;DHT22;9453;50.294;18.644;2023-01-15T08:41:55;8.00;86.70
18648;DHT22;9453;50.294;18.644;2023-01-15T08:44:22;8.00;87.20
18648;DHT22;9453;50.294;18.644;2023-01-15T08:46:50;8.00;86.60
18648;DHT22;9453;50.294;18.644;2023-01-15T08:49:20;8.00;87.00
18648;DHT22;9453;50.294;18.644;2023-01-15T08:51:47;8.00;87.00
18648;DHT22;9453;50.294;18.644;2023-01-15T08:54:16;8.00;86.60
18648;DHT22;9453;50.294;18.644;2023-01-15T08:56:45;8.10;86.10
18648;DHT22;9453;50.294;18.644;2023-01-15T08:59:12;8.00;85.70
18648;DHT22;9453;50.294;18.644;2023-01-15T09:01:40;8.00;85.20
18648;DHT22;9453;50.294;18.644;2023-01-15T09:04:08;8.00;84.70
18648;DHT22;9453;50.294;18.644;2023-01-15T09:06:37;8.00;84.70
18648;DHT22;9453;50.294;18.644;2023-01-15T09:09:04;8.00;84.40
18648;DHT22;9453;50.294;18.644;2023-01-15T09:11:31;8.00;84.50
18648;DHT22;9453;50.294;18.644;2023-01-15T09:13:59;8.10;84.10
18648;DHT22;9453;50.294;18.644;2023-01-15T09:16:26;8.10;84.50
18648;DHT22;9453;50.294;18.644;2023-01-15T09:18:56;8.20;84.70
18648;DHT22;9453;50.294;18.644;2023-01-15T09:21:23;8.20;84.40
18648;DHT22;9453;50.294;18.644;2023-01-15T09:23:50;8.30;84.90
18648;DHT22;9453;50.294;18.644;2023-01-15T09:26:26;8.40;85.00
18648;DHT22;9453;50.294;18.644;2023-01-15T09:28:53;8.40;85.30
18648;DHT22;9453;50.294;18.644;2023-01-15T09:31:22;8.50;86.30
18648;DHT22;9453;50.294;18.644;2023-01-15T09:33:49;8.50;87.80
18648;DHT22;9453;50.294;18.644;2023-01-15T09:36:16;8.50;89.10
18648;DHT22;9453;50.294;18.644;2023-01-15T09:38:44;8.50;90.10
18648;DHT22;9453;50.294;18.644;2023-01-15T09:41:12;8.50;90.20
18648;DHT22;9453;50.294;18.644;2023-01-15T09:44:03;8.50;90.80
18648;DHT22;9453;50.294;18.644;2023-01-15T09:46:39;8.40;90.70
18648;DHT22;9453;50.294;18.644;2023-01-15T09:49:20;8.40;91.30
18648;DHT22;9453;50.294;18.644;2023-01-15T09:51:58;8.40;91.40
18648;DHT22;9453;50.294;18.644;2023-01-15T09:54:40;8.30;91.70
18648;DHT22;9453;50.294;18.644;2023-01-15T09:57:11;8.20;91.60
18648;DHT22;9453;50.294;18.644;2023-01-15T09:59:40;8.20;91.70
18648;DHT22;9453;50.294;18.644;2023-01-15T10:02:20;8.20;91.60
18648;DHT22;9453;50.294;18.644;2023-01-15T10:04:51;8.10;91.40
18648;DHT22;9453;50.294;18.644;2023-01-15T10:07:25;8.10;91.30
18648;DHT22;9453;50.294;18.644;2023-01-15T10:09:58;8.10;91.50
18648;DHT22;9453;50.294;18.644;2023-01-15T10:12:29;8.10;91.80
18648;DHT22;9453;50.294;18.644;2023-01-15T10:15:19;8.00;92.00
18648;DHT22;9453;50.294;18.644;2023-01-15T10:17:51;8.00;92.20
18648;DHT22;9453;50.294;18.644;2023-01-15T10:20:41;8.00;92.40
18648;DHT22;9453;50.294;18.644;2023-01-15T10:23:23;7.90;92.50
18648;DHT22;9453;50.294;18.644;2023-01-15T10:25:56;7.90;92.70
18648;DHT22;9453;50.294;18.644;2023-01-15T10:28:26;7.90;92.90
18648;DHT22;9453;50.294;18.644;2023-01-15T10:30:55;7.90;93.20
18648;DHT22;9453;50.294;18.644;2023-01-15T10:33:48;7.90;93.00
18648;DHT22;9453;50.294;18.644;2023-01-15T10:36:20;8.00;93.30
18648;DHT22;9453;50.294;18.644;2023-01-15T10:38:53;8.00;93.30
18648;DHT22;9453;50.294;18.644;2023-01-15T10:41:36;8.00;93.20
18648;DHT22;9453;50.294;18.644;2023-01-15T10:44:08;8.00;93.20
18648;DHT22;9453;50.294;18.644;2023-01-15T10:46:38;8.00;93.00
18648;DHT22;9453;50.294;18.644;2023-01-15T10:49:13;8.00;92.90
18648;DHT22;9453;50.294;18.644;2023-01-15T10:51:42;8.00;92.90
18648;DHT22;9453;50.294;18.644;2023-01-15T10:54:16;7.90;93.00
18648;DHT22;9453;50.294;18.644;2023-01-15T10:56:52;7.90;93.10
18648;DHT22;9453;50.294;18.644;2023-01-15T10:59:33;7.90;93.20
18648;DHT22;9453;50.294;18.644;2023-01-15T11:02:03;8.00;93.40
18648;DHT22;9453;50.294;18.644;2023-01-15T11:04:41;8.00;93.40
18648;DHT22;9453;50.294;18.644;2023-01-15T11:07:09;8.10;93.60
18648;DHT22;9453;50.294;18.644;2023-01-15T11:09:37;8.10;93.70
18648;DHT22;9453;50.294;18.644;2023-01-15T11:12:18;8.20;93.90
18648;DHT22;9453;50.294;18.644;2023-01-15T11:15:13;8.20;94.00
18648;DHT22;9453;50.294;18.644;2023-01-15T11:18:00;8.20;94.50
18648;DHT22;9453;50.294;18.644;2023-01-15T11:20:48;8.20;94.50
18648;DHT22;9453;50.294;18.644;2023-01-15T11:23:19;8.20;94.90
18648;DHT22;9453;50.294;18.644;2023-01-15T11:25:49;8.20;94.80
18648;DHT22;9453;50.294;18.644;2023-01-15T11:28:17;8.20;94.90
18648;DHT22;9453;50.294;18.644;2023-01-15T11:30:53;8.30;95.00
18648;DHT22;9453;50.294;18.644;2023-01-15T11:33:21;8.30;95.00
18648;DHT22;9453;50.294;18.644;2023-01-15T11:35:52;8.40;95.10
18648;DHT22;9453;50.294;18.644;2023-01-15T11:38:23;8.40;95.20
18648;DHT22;9453;50.294;18.644;2023-01-15T11:40:51;8.40;95.40
18648;DHT22;9453;50.294;18.644;2023-01-15T11:43:20;8.40;95.30
18648;DHT22;9453;50.294;18.644;2023-01-15T11:46:18;8.50;95.30
18648;DHT22;9453;50.294;18.644;2023-01-15T11:49:08;8.50;95.20
18648;DHT22;9453;50.294;18.644;2023-01-15T11:51:55;8.50;95.40
18648;DHT22;9453;50.294;18.644;2023-01-15T11:54:24;8.50;95.50
18648;DHT22;9453;50.294;18.644;2023-01-15T11:56:53;8.50;95.60
18648;DHT22;9453;50.294;18.644;2023-01-15T11:59:21;8.50;95.60
18648;DHT22;9453;50.294;18.644;2023-01-15T12:01:51;8.50;96.00
18648;DHT22;9453;50.294;18.644;2023-01-15T12:04:28;8.50;96.00
18648;DHT22;9453;50.294;18.644;2023-01-15T12:06:58;8.50;96.10
18648;DHT22;9453;50.294;18.644;2023-01-15T12:09:36;8.50;96.70
18648;DHT22;9453;50.294;18.644;2023-01-15T12:12:12;8.50;96.90
18648;DHT22;9453;50.294;18.644;2023-01-15T12:15:10;8.40;97.00
18648;DHT22;9453;50.294;18.644;2023-01-15T12:20:57;8.30;97.70
18648;DHT22;9453;50.294;18.644;2023-01-15T12:23:48;8.30;98.00
18648;DHT22;9453;50.294;18.644;2023-01-15T12:26:23;8.30;97.90
18648;DHT22;9453;50.294;18.644;2023-01-15T12:28:56;8.30;97.90
18648;DHT22;9453;50.294;18.644;2023-01-15T12:31:29;8.30;97.90
18648;DHT22;9453;50.294;18.644;2023-01-15T12:34:01;8.40;97.70
18648;DHT22;9453;50.294;18.644;2023-01-15T12:36:40;8.40;97.70
18648;DHT22;9453;50.294;18.644;2023-01-15T12:39:16;8.30;97.40
18648;DHT22;9453;50.294;18.644;2023-01-15T12:41:46;8.40;97.40
18648;DHT22;9453;50.294;18.644;2023-01-15T12:44:35;8.40;97.50
18648;DHT22;9453;50.294;18.644;2023-01-15T12:47:24;8.30;97.10
18648;DHT22;9453;50.294;18.644;2023-01-15T12:49:56;8.20;97.60
18648;DHT22;9453;50.294;18.644;2023-01-15T12:52:28;8.20;97.40
18648;DHT22;9453;50.294;18.644;2023-01-15T12:55:02;8.20;96.90
18648;DHT22;9453;50.294;18.644;2023-01-15T12:57:34;8.30;96.90
18648;DHT22;9453;50.294;18.644;2023-01-15T13:00:04;8.30;96.60
18648;DHT22;9453;50.294;18.644;2023-01-15T13:02:45;8.30;96.60
18648;DHT22;9453;50.294;18.644;2023-01-15T13:05:18;8.30;96.50
18648;DHT22;9453;50.294;18.644;2023-01-15T13:07:51;8.30;96.30
18648;DHT22;9453;50.294;18.644;2023-01-15T13:10:23;8.30;96.30
18648;DHT22;9453;50.294;18.644;2023-01-15T13:12:53;8.30;96.50
18648;DHT22;9453;50.294;18.644;2023-01-15T13:15:25;8.30;96.60
18648;DHT22;9453;50.294;18.644;2023-01-15T13:18:01;8.30;96.90
18648;DHT22;9453;50.294;18.644;2023-01-15T13:20:38;8.20;96.80
18648;DHT22;9453;50.294;18.644;2023-01-15T13:23:08;8.20;97.00
18648;DHT22;9453;50.294;18.644;2023-01-15T13:25:54;8.20;97.00
18648;DHT22;9453;50.294;18.644;2023-01-15T13:28:33;8.20;97.10
18648;DHT22;9453;50.294;18.644;2023-01-15T13:31:11;8.20;97.20
18648;DHT22;9453;50.294;18.644;2023-01-15T13:33:43;8.10;97.20
18648;DHT22;9453;50.294;18.644;2023-01-15T13:36:15;8.10;97.10
18648;DHT22;9453;50.294;18.644;2023-01-15T13:38:46;8.10;97.00
18648;DHT22;9453;50.294;18.644;2023-01-15T13:41:21;8.10;97.10
18648;DHT22;9453;50.294;18.644;2023-01-15T13:44:04;8.10;97.00
18648;DHT22;9453;50.294;18.644;2023-01-15T13:46:31;8.20;97.20
18648;DHT22;9453;50.294;18.644;2023-01-15T13:48:58;8.10;97.20
18648;DHT22;9453;50.294;18.644;2023-01-15T13:51:29;8.10;97.10
18648;DHT22;9453;50.294;18.644;2023-01-15T13:54:02;8.10;97.20
18648;DHT22;9453;50.294;18.644;2023-01-15T13:56:32;8.10;97.00
18648;DHT22;9453;50.294;18.644;2023-01-15T13:59:01;8.10;96.90
18648;DHT22;9453;50.294;18.644;2023-01-15T14:01:32;8.10;96.90
18648;DHT22;9453;50.294;18.644;2023-01-15T14:04:02;8.00;96.80
18648;DHT22;9453;50.294;18.644;2023-01-15T14:06:38;8.00;97.00
18648;DHT22;9453;50.294;18.644;2023-01-15T14:09:07;8.00;96.90
18648;DHT22;9453;50.294;18.644;2023-01-15T14:11:40;8.00;96.90
18648;DHT22;9453;50.294;18.644;2023-01-15T14:17:10;7.90;97.20
18648;DHT22;9453;50.294;18.644;2023-01-15T14:19:58;8.00;97.10
18648;DHT22;9453;50.294;18.644;2023-01-15T14:22:46;8.00;97.00
18648;DHT22;9453;50.294;18.644;2023-01-15T14:25:22;8.00;96.90
18648;DHT22;9453;50.294;18.644;2023-01-15T14:28:05;8.00;96.90
18648;DHT22;9453;50.294;18.644;2023-01-15T14:30:50;8.00;96.90
18648;DHT22;9453;50.294;18.644;2023-01-15T14:33:29;8.10;97.00
18648;DHT22;9453;50.294;18.644;2023-01-15T14:36:08;8.10;97.00
18648;DHT22;9453;50.294;18.644;2023-01-15T14:38:44;8.10;96.90
18648;DHT22;9453;50.294;18.644;2023-01-15T14:41:13;8.00;96.70
18648;DHT22;9453;50.294;18.644;2023-01-15T14:43:47;8.00;96.70
18648;DHT22;9453;50.294;18.644;2023-01-15T14:46:18;8.00;97.00
18648;DHT22;9453;50.294;18.644;2023-01-15T14:48:47;8.10;97.40
18648;DHT22;9453;50.294;18.644;2023-01-15T14:51:17;8.00;97.60
18648;DHT22;9453;50.294;18.644;2023-01-15T14:53:47;8.00;97.80
18648;DHT22;9453;50.294;18.644;2023-01-15T14:56:19;8.00;98.10
18648;DHT22;9453;50.294;18.644;2023-01-15T14:58:55;8.00;98.30
18648;DHT22;9453;50.294;18.644;2023-01-15T15:01:35;7.90;98.40
18648;DHT22;9453;50.294;18.644;2023-01-15T15:04:18;7.90;98.60
18648;DHT22;9453;50.294;18.644;2023-01-15T15:06:50;7.90;98.70
18648;DHT22;9453;50.294;18.644;2023-01-15T15:09:27;7.90;98.70
18648;DHT22;9453;50.294;18.644;2023-01-15T15:12:02;7.80;99.00
18648;DHT22;9453;50.294;18.644;2023-01-15T15:14:52;7.90;99.20
18648;DHT22;9453;50.294;18.644;2023-01-15T15:17:33;7.80;99.70
18648;DHT22;9453;50.294;18.644;2023-01-15T15:20:16;7.70;99.90
18648;DHT22;9453;50.294;18.644;2023-01-15T15:22:46;7.70;99.90
18648;DHT22;9453;50.294;18.644;2023-01-15T15:25:20;7.70;99.90
18648;DHT22;9453;50.294;18.644;2023-01-15T15:27:47;7.70;99.90
18648;DHT22;9453;50.294;18.644;2023-01-15T15:30:16;7.60;99.90
18648;DHT22;9453;50.294;18.644;2023-01-15T15:32:45;7.60;99.90
18648;DHT22;9453;50.294;18.644;2023-01-15T15:35:23;7.60;99.90
18648;DHT22;9453;50.294;18.644;2023-01-15T15:37:52;7.60;99.90
18648;DHT22;9453;50.294;18.644;2023-01-15T15:40:23;7.60;99.90
18648;DHT22;9453;50.294;18.644;2023-01-15T15:43:00;7.50;99.90
18648;DHT22;9453;50.294;18.644;2023-01-15T15:45:52;7.50;99.90
18648;DHT22;9453;50.294;18.644;2023-01-15T15:48:37;7.50;99.90
18648;DHT22;9453;50.294;18.644;2023-01-15T15:51:32;7.40;99.90
18648;DHT22;9453;50.294;18.644;2023-01-15T15:54:13;7.50;99.90
18648;DHT22;9453;50.294;18.644;2023-01-15T15:56:52;7.50;99.90
18648;DHT22;9453;50.294;18.644;2023-01-15T15:59:30;7.40;99.90
18648;DHT22;9453;50.294;18.644;2023-01-15T16:02:06;7.40;99.90
18648;DHT22;9453;50.294;18.644;2023-01-15T16:04:34;7.40;99.90
18648;DHT22;9453;50.294;18.644;2023-01-15T16:07:11;7.30;99.90
18648;DHT22;9453;50.294;18.644;2023-01-15T16:09:38;7.30;99.90
18648;DHT22;9453;50.294;18.644;2023-01-15T16:12:10;7.30;99.90
18648;DHT22;9453;50.294;18.644;2023-01-15T16:14:38;7.30;99.90
18648;DHT22;9453;50.294;18.644;2023-01-15T16:17:08;7.30;99.90
18648;DHT22;9453;50.294;18.644;2023-01-15T16:19:36;7.30;99.90
18648;DHT22;9453;50.294;18.644;2023-01-15T16:22:05;7.30;99.90
18648;DHT22;9453;50.294;18.644;2023-01-15T16:24:32;7.20;99.90
18648;DHT22;9453;50.294;18.644;2023-01-15T16:27:01;7.00;99.90
18648;DHT22;9453;50.294;18.644;2023-01-15T16:29:32;6.90;99.90
18648;DHT22;9453;50.294;18.644;2023-01-15T16:32:00;6.80;99.90
18648;DHT22;9453;50.294;18.644;2023-01-15T16:34:31;6.60;99.90
18648;DHT22;9453;50.294;18.644;2023-01-15T16:36:58;6.50;99.90
18648;DHT22;9453;50.294;18.644;2023-01-15T16:39:28;6.50;99.90
18648;DHT22;9453;50.294;18.644;2023-01-15T16:41:57;6.30;99.90
18648;DHT22;9453;50.294;18.644;2023-01-15T16:44:35;6.30;99.90
18648;DHT22;9453;50.294;18.644;2023-01-15T16:47:04;6.20;99.90
18648;DHT22;9453;50.294;18.644;2023-01-15T16:49:33;6.20;99.90
18648;DHT22;9453;50.294;18.644;2023-01-15T16:52:01;6.10;99.90
18648;DHT22;9453;50.294;18.644;2023-01-15T16:54:46;6.10;99.90
18648;DHT22;9453;50.294;18.644;2023-01-15T16:57:30;6.10;99.90
18648;DHT22;9453;50.294;18.644;2023-01-15T17:00:05;6.10;99.90
18648;DHT22;9453;50.294;18.644;2023-01-15T17:02:44;6.10;99.90
18648;DHT22;9453;50.294;18.644;2023-01-15T17:05:22;6.10;99.90
18648;DHT22;9453;50.294;18.644;2023-01-15T17:07:50;6.00;99.90
18648;DHT22;9453;50.294;18.644;2023-01-15T17:10:24;6.00;99.90
18648;DHT22;9453;50.294;18.644;2023-01-15T17:12:51;5.90;99.90
18648;DHT22;9453;50.294;18.644;2023-01-15T17:15:39;5.90;99.90
18648;DHT22;9453;50.294;18.644;2023-01-15T17:18:24;5.90;99.90
18648;DHT22;9453;50.294;18.644;2023-01-15T17:20:53;5.80;99.90
18648;DHT22;9453;50.294;18.644;2023-01-15T17:23:24;5.80;99.90
18648;DHT22;9453;50.294;18.644;2023-01-15T17:25:52;5.80;99.90
18648;DHT22;9453;50.294;18.644;2023-01-15T17:28:20;5.70;99.90
18648;DHT22;9453;50.294;18.644;2023-01-15T17:30:50;5.70;99.90
18648;DHT22;9453;50.294;18.644;2023-01-15T17:33:19;5.70;99.90
18648;DHT22;9453;50.294;18.644;2023-01-15T17:35:46;5.70;99.90
18648;DHT22;9453;50.294;18.644;2023-01-15T17:38:16;5.60;99.90
18648;DHT22;9453;50.294;18.644;2023-01-15T17:40:43;5.70;99.90
18648;DHT22;9453;50.294;18.644;2023-01-15T17:43:12;5.60;99.90
18648;DHT22;9453;50.294;18.644;2023-01-15T17:45:40;5.60;99.90
18648;DHT22;9453;50.294;18.644;2023-01-15T17:48:07;5.70;99.90
18648;DHT22;9453;50.294;18.644;2023-01-15T17:50:35;5.60;99.90
18648;DHT22;9453;50.294;18.644;2023-01-15T17:53:03;5.60;99.90
18648;DHT22;9453;50.294;18.644;2023-01-15T17:55:32;5.60;99.90
18648;DHT22;9453;50.294;18.644;2023-01-15T17:58:16;5.60;99.90
18648;DHT22;9453;50.294;18.644;2023-01-15T18:01:03;5.60;99.90
18648;DHT22;9453;50.294;18.644;2023-01-15T18:03:50;5.60;99.90
18648;DHT22;9453;50.294;18.644;2023-01-15T18:06:35;5.60;99.90
18648;DHT22;9453;50.294;18.644;2023-01-15T18:09:05;5.60;99.90
18648;DHT22;9453;50.294;18.644;2023-01-15T18:11:35;5.60;99.90
18648;DHT22;9453;50.294;18.644;2023-01-15T18:14:02;5.60;99.90
18648;DHT22;9453;50.294;18.644;2023-01-15T18:16:29;5.60;99.90
18648;DHT22;9453;50.294;18.644;2023-01-15T18:18:56;5.60;99.90
18648;DHT22;9453;50.294;18.644;2023-01-15T18:21:23;5.70;99.90
18648;DHT22;9453;50.294;18.644;2023-01-15T18:23:50;5.70;99.90
18648;DHT22;9453;50.294;18.644;2023-01-15T18:26:17;5.70;99.90
18648;DHT22;9453;50.294;18.644;2023-01-15T18:28:45;5.80;99.90
18648;DHT22;9453;50.294;18.644;2023-01-15T18:31:13;5.70;99.90
18648;DHT22;9453;50.294;18.644;2023-01-15T18:33:40;5.70;99.90
18648;DHT22;9453;50.294;18.644;2023-01-15T18:36:09;5.70;99.90
18648;DHT22;9453;50.294;18.644;2023-01-15T18:38:36;5.70;99.90
18648;DHT22;9453;50.294;18.644;2023-01-15T18:41:06;5.70;99.90
18648;DHT22;9453;50.294;18.644;2023-01-15T18:43:34;5.70;99.90
18648;DHT22;9453;50.294;18.644;2023-01-15T18:46:20;5.80;99.90
18648;DHT22;9453;50.294;18.644;2023-01-15T18:49:04;5.70;99.90
18648;DHT22;9453;50.294;18.644;2023-01-15T18:51:32;5.80;99.90
18648;DHT22;9453;50.294;18.644;2023-01-15T18:53:59;5.80;99.90
18648;DHT22;9453;50.294;18.644;2023-01-15T18:56:26;5.80;99.90
18648;DHT22;9453;50.294;18.644;2023-01-15T18:59:05;5.80;99.90
18648;DHT22;9453;50.294;18.644;2023-01-15T19:01:34;5.70;99.90
18648;DHT22;9453;50.294;18.644;2023-01-15T19:04:01;5.80;99.90
18648;DHT22;9453;50.294;18.644;2023-01-15T19:06:31;5.80;99.90
18648;DHT22;9453;50.294;18.644;2023-01-15T19:08:58;5.80;99.90
18648;DHT22;9453;50.294;18.644;2023-01-15T19:11:26;5.80;99.90
18648;DHT22;9453;50.294;18.644;2023-01-15T19:13:52;5.80;99.90
18648;DHT22;9453;50.294;18.644;2023-01-15T19:16:35;5.80;99.90
18648;DHT22;9453;50.294;18.644;2023-01-15T19:19:19;5.80;99.90
18648;DHT22;9453;50.294;18.644;2023-01-15T19:21:46;5.80;99.90
18648;DHT22;9453;50.294;18.644;2023-01-15T19:24:33;5.80;99.90
18648;DHT22;9453;50.294;18.644;2023-01-15T19:27:01;5.80;99.90
18648;DHT22;9453;50.294;18.644;2023-01-15T19:29:28;5.70;99.90
18648;DHT22;9453;50.294;18.644;2023-01-15T19:31:57;5.80;99.90
18648;DHT22;9453;50.294;18.644;2023-01-15T19:34:24;5.80;99.90
18648;DHT22;9453;50.294;18.644;2023-01-15T19:36:51;5.80;99.90
18648;DHT22;9453;50.294;18.644;2023-01-15T19:39:19;5.80;99.90
18648;DHT22;9453;50.294;18.644;2023-01-15T19:41:46;5.80;99.90
18648;DHT22;9453;50.294;18.644;2023-01-15T19:44:30;5.80;99.90
18648;DHT22;9453;50.294;18.644;2023-01-15T19:47:20;5.80;99.90
18648;DHT22;9453;50.294;18.644;2023-01-15T19:50:09;5.70;99.90
18648;DHT22;9453;50.294;18.644;2023-01-15T19:52:46;5.70;99.90
18648;DHT22;9453;50.294;18.644;2023-01-15T19:55:13;5.70;99.90
18648;DHT22;9453;50.294;18.644;2023-01-15T19:57:43;5.70;99.90
18648;DHT22;9453;50.294;18.644;2023-01-15T20:00:12;5.70;99.90
18648;DHT22;9453;50.294;18.644;2023-01-15T20:02:42;5.60;99.90
18648;DHT22;9453;50.294;18.644;2023-01-15T20:05:10;5.60;99.90
18648;DHT22;9453;50.294;18.644;2023-01-15T20:07:38;5.60;99.90
18648;DHT22;9453;50.294;18.644;2023-01-15T20:10:07;5.60;99.90
18648;DHT22;9453;50.294;18.644;2023-01-15T20:12:35;5.50;99.90
18648;DHT22;9453;50.294;18.644;2023-01-15T20:15:20;5.50;99.90
18648;DHT22;9453;50.294;18.644;2023-01-15T20:17:49;5.50;99.90
18648;DHT22;9453;50.294;18.644;2023-01-15T20:20:16;5.60;99.90
18648;DHT22;9453;50.294;18.644;2023-01-15T20:22:43;5.60;99.90
18648;DHT22;9453;50.294;18.644;2023-01-15T20:25:10;5.50;99.90
18648;DHT22;9453;50.294;18.644;2023-01-15T20:27:38;5.60;99.90
18648;DHT22;9453;50.294;18.644;2023-01-15T20:30:08;5.60;99.90
18648;DHT22;9453;50.294;18.644;2023-01-15T20:32:37;5.60;99.90
18648;DHT22;9453;50.294;18.644;2023-01-15T20:35:09;5.60;99.90
18648;DHT22;9453;50.294;18.644;2023-01-15T20:37:37;5.60;99.90
18648;DHT22;9453;50.294;18.644;2023-01-15T20:40:05;5.60;99.90
18648;DHT22;9453;50.294;18.644;2023-01-15T20:42:33;5.50;99.90
18648;DHT22;9453;50.294;18.644;2023-01-15T20:45:18;5.60;99.90
18648;DHT22;9453;50.294;18.644;2023-01-15T20:47:45;5.60;99.90
18648;DHT22;9453;50.294;18.644;2023-01-15T20:50:33;5.60;99.90
18648;DHT22;9453;50.294;18.644;2023-01-15T20:53:01;5.60;99.90
18648;DHT22;9453;50.294;18.644;2023-01-15T20:55:30;5.60;99.90
18648;DHT22;9453;50.294;18.644;2023-01-15T20:57:58;5.60;99.90
18648;DHT22;9453;50.294;18.644;2023-01-15T21:00:26;5.60;99.90
18648;DHT22;9453;50.294;18.644;2023-01-15T21:02:53;5.60;99.90
18648;DHT22;9453;50.294;18.644;2023-01-15T21:05:25;5.60;99.90
18648;DHT22;9453;50.294;18.644;2023-01-15T21:07:53;5.60;99.90
18648;DHT22;9453;50.294;18.644;2023-01-15T21:10:20;5.70;99.90
18648;DHT22;9453;50.294;18.644;2023-01-15T21:12:50;5.70;99.90
18648;DHT22;9453;50.294;18.644;2023-01-15T21:15:17;5.70;99.90
18648;DHT22;9453;50.294;18.644;2023-01-15T21:17:44;5.70;99.90
18648;DHT22;9453;50.294;18.644;2023-01-15T21:20:13;5.70;99.90
18648;DHT22;9453;50.294;18.644;2023-01-15T21:22:42;5.70;99.90
18648;DHT22;9453;50.294;18.644;2023-01-15T21:25:10;5.70;99.90